createdAt,value
2023-09-16T00:00:10.844Z,18.90
2023-09-16T00:02:41.292Z,18.90
2023-09-16T00:05:10.403Z,18.90
2023-09-16T00:07:39.285Z,18.90
2023-09-16T00:10:09.177Z,18.80
2023-09-16T00:12:38.032Z,18.80
2023-09-16T00:15:08.034Z,18.80
2023-09-16T00:17:36.891Z,18.80
2023-09-16T00:20:16.520Z,18.80
2023-09-16T00:22:45.683Z,18.80
2023-09-16T00:25:15.142Z,18.80
2023-09-16T00:27:44.055Z,18.70
2023-09-16T00:30:13.252Z,18.70
2023-09-16T00:32:42.118Z,18.60
2023-09-16T00:35:12.547Z,18.70
2023-09-16T00:37:42.581Z,18.80
2023-09-16T00:40:12.753Z,18.80
2023-09-16T00:42:41.486Z,18.80
2023-09-16T00:45:12.188Z,18.70
2023-09-16T00:47:43.302Z,18.60
2023-09-16T00:50:16.022Z,18.60
2023-09-16T00:52:48.766Z,18.70
2023-09-16T00:55:17.971Z,18.60
2023-09-16T00:57:50.168Z,18.60
2023-09-16T01:00:19.371Z,18.50
2023-09-16T01:02:50.576Z,18.50
2023-09-16T01:05:21.474Z,18.50
2023-09-16T01:07:51.481Z,18.50
2023-09-16T01:10:21.879Z,18.50
2023-09-16T01:12:54.388Z,18.50
2023-09-16T01:15:28.549Z,18.50
2023-09-16T01:18:06.589Z,18.50
2023-09-16T01:20:40.178Z,18.40
2023-09-16T01:23:09.653Z,18.50
2023-09-16T01:25:40.135Z,18.50
2023-09-16T01:28:08.998Z,18.40
2023-09-16T01:30:42.307Z,18.40
2023-09-16T01:33:19.095Z,18.30
2023-09-16T01:35:51.014Z,18.30
2023-09-16T01:38:21.872Z,18.30
2023-09-16T01:40:55.444Z,18.20
2023-09-16T01:43:24.256Z,18.20
2023-09-16T01:45:54.282Z,18.20
2023-09-16T01:48:33.005Z,18.10
2023-09-16T01:51:09.480Z,18.10
2023-09-16T01:53:38.301Z,18.10
2023-09-16T01:56:08.715Z,18.10
2023-09-16T01:58:37.975Z,18.00
2023-09-16T02:01:09.491Z,18.00
2023-09-16T02:03:38.367Z,18.00
2023-09-16T02:06:08.543Z,17.90
2023-09-16T02:08:37.664Z,17.90
2023-09-16T02:11:06.541Z,17.90
2023-09-16T02:13:37.240Z,17.90
2023-09-16T02:16:06.511Z,18.00
2023-09-16T02:18:36.819Z,18.00
2023-09-16T02:21:05.835Z,17.90
2023-09-16T02:23:34.698Z,17.90
2023-09-16T02:26:03.699Z,17.80
2023-09-16T02:28:32.477Z,17.70
2023-09-16T02:31:02.688Z,17.70
2023-09-16T02:33:31.473Z,17.70
2023-09-16T02:36:00.232Z,17.60
2023-09-16T02:38:29.033Z,17.70
2023-09-16T02:40:57.925Z,17.70
2023-09-16T02:43:26.773Z,17.70
2023-09-16T02:45:58.423Z,17.70
2023-09-16T02:48:28.868Z,17.80
2023-09-16T02:50:57.650Z,17.80
2023-09-16T02:53:27.520Z,17.70
2023-09-16T02:55:57.262Z,17.70
2023-09-16T02:58:26.079Z,17.60
2023-09-16T03:00:54.918Z,17.60
2023-09-16T03:03:24.266Z,17.60
2023-09-16T03:05:54.552Z,17.70
2023-09-16T03:08:23.630Z,17.60
2023-09-16T03:10:52.751Z,17.60
2023-09-16T03:13:21.423Z,17.70
2023-09-16T03:15:50.867Z,17.60
2023-09-16T03:18:21.076Z,17.60
2023-09-16T03:20:49.854Z,17.70
2023-09-16T03:23:20.111Z,17.70
2023-09-16T03:25:49.667Z,17.70
2023-09-16T03:28:18.712Z,17.70
2023-09-16T03:30:47.586Z,17.70
2023-09-16T03:33:17.040Z,17.70
2023-09-16T03:35:45.932Z,17.60
2023-09-16T03:38:16.506Z,17.60
2023-09-16T03:40:47.111Z,17.50
2023-09-16T03:43:15.895Z,17.50
2023-09-16T03:45:45.147Z,17.50
2023-09-16T03:48:13.973Z,17.50
2023-09-16T03:50:43.008Z,17.50
2023-09-16T03:53:12.201Z,17.40
2023-09-16T03:55:43.336Z,17.50
2023-09-16T03:58:13.540Z,17.50
2023-09-16T04:00:42.397Z,17.50
2023-09-16T04:03:12.491Z,17.50
2023-09-16T04:05:41.295Z,17.50
2023-09-16T04:08:10.339Z,17.50
2023-09-16T04:10:39.122Z,17.40
2023-09-16T04:13:08.019Z,17.40
2023-09-16T04:15:38.274Z,17.30
2023-09-16T04:18:07.457Z,17.20
2023-09-16T04:20:37.019Z,17.20
2023-09-16T04:23:08.119Z,17.20
2023-09-16T04:25:37.631Z,17.30
2023-09-16T04:28:07.292Z,17.20
2023-09-16T04:30:41.254Z,17.20
2023-09-16T04:33:11.411Z,17.10
2023-09-16T04:35:46.123Z,17.10
2023-09-16T04:38:15.276Z,17.10
2023-09-16T04:40:46.412Z,17.10
2023-09-16T04:43:15.188Z,17.10
2023-09-16T04:45:46.715Z,17.20
2023-09-16T04:48:16.301Z,17.20
2023-09-16T04:50:46.864Z,17.20
2023-09-16T04:53:17.485Z,17.20
2023-09-16T04:55:46.689Z,17.10
2023-09-16T04:58:15.507Z,17.10
2023-09-16T05:00:45.831Z,17.10
2023-09-16T05:03:14.927Z,17.10
2023-09-16T05:05:43.763Z,17.10
2023-09-16T05:08:13.021Z,17.00
2023-09-16T05:10:41.913Z,16.90
2023-09-16T05:13:11.485Z,17.10
2023-09-16T05:15:40.593Z,17.10
2023-09-16T05:18:11.469Z,17.00
2023-09-16T05:20:40.356Z,16.90
2023-09-16T05:23:09.375Z,16.90
2023-09-16T05:25:46.662Z,16.90
2023-09-16T05:28:15.792Z,16.90
2023-09-16T05:30:44.736Z,16.90
2023-09-16T05:33:15.985Z,17.00
2023-09-16T05:35:45.573Z,17.00
2023-09-16T05:38:14.465Z,17.00
2023-09-16T05:41:00.446Z,17.10
2023-09-16T05:43:33.280Z,17.10
2023-09-16T05:46:10.120Z,17.10
2023-09-16T05:48:45.467Z,17.20
2023-09-16T05:51:25.036Z,17.10
2023-09-16T05:54:03.709Z,17.10
2023-09-16T05:56:38.702Z,17.10
2023-09-16T05:59:15.365Z,17.20
2023-09-16T06:01:46.677Z,17.30
2023-09-16T06:04:21.835Z,17.20
2023-09-16T06:07:03.840Z,17.30
2023-09-16T06:09:39.414Z,17.30
2023-09-16T06:12:11.721Z,17.30
2023-09-16T06:14:49.281Z,17.30
2023-09-16T06:17:35.986Z,17.40
2023-09-16T06:20:09.916Z,17.50
2023-09-16T06:22:50.828Z,17.60
2023-09-16T06:25:29.417Z,17.70
2023-09-16T06:28:08.597Z,17.80
2023-09-16T06:30:39.052Z,17.80
2023-09-16T06:33:08.369Z,17.80
2023-09-16T06:35:38.474Z,17.90
2023-09-16T06:38:07.313Z,17.90
2023-09-16T06:40:36.100Z,17.90
2023-09-16T06:43:05.449Z,18.00
2023-09-16T06:45:38.468Z,18.00
2023-09-16T06:48:09.871Z,18.10
2023-09-16T06:50:41.730Z,18.10
2023-09-16T06:53:10.572Z,18.10
2023-09-16T06:55:39.637Z,18.10
2023-09-16T07:00:55.241Z,18.20
2023-09-16T07:03:24.413Z,18.30
2023-09-16T07:05:54.702Z,18.30
2023-09-16T07:08:25.579Z,18.30
2023-09-16T07:10:54.361Z,18.40
2023-09-16T07:13:23.354Z,18.60
2023-09-16T07:15:54.850Z,18.70
2023-09-16T07:18:23.805Z,18.80
2023-09-16T07:20:54.073Z,18.90
2023-09-16T07:23:22.874Z,18.90
2023-09-16T07:25:56.754Z,19.00
2023-09-16T07:28:26.703Z,19.20
2023-09-16T07:30:56.295Z,19.20
2023-09-16T07:33:25.374Z,19.20
2023-09-16T07:35:55.643Z,19.30
2023-09-16T07:38:25.140Z,19.30
2023-09-16T07:40:55.037Z,19.40
2023-09-16T07:43:23.825Z,19.60
2023-09-16T07:45:53.292Z,19.70
2023-09-16T07:48:22.351Z,19.90
2023-09-16T07:50:53.532Z,20.00
2023-09-16T07:53:25.322Z,20.10
2023-09-16T07:55:54.159Z,20.20
2023-09-16T07:58:22.983Z,20.20
2023-09-16T08:00:51.969Z,20.20
2023-09-16T08:03:21.220Z,20.40
2023-09-16T08:05:51.281Z,20.40
2023-09-16T08:08:20.238Z,20.60
2023-09-16T08:10:51.898Z,20.60
2023-09-16T08:13:20.824Z,20.80
2023-09-16T08:15:49.847Z,20.90
2023-09-16T08:18:18.721Z,21.10
2023-09-16T08:20:47.602Z,21.50
2023-09-16T08:23:16.402Z,21.70
2023-09-16T08:25:46.380Z,21.90
2023-09-16T08:28:17.549Z,22.00
2023-09-16T08:30:49.718Z,22.00
2023-09-16T08:33:18.682Z,22.20
2023-09-16T08:35:47.544Z,22.30
2023-09-16T08:38:16.556Z,22.30
2023-09-16T08:40:45.432Z,22.40
2023-09-16T08:43:20.774Z,22.50
2023-09-16T08:45:56.422Z,22.60
2023-09-16T08:48:28.120Z,22.70
2023-09-16T08:50:59.775Z,22.80
2023-09-16T08:53:31.813Z,23.00
2023-09-16T08:56:01.584Z,23.10
2023-09-16T08:58:36.561Z,23.20
2023-09-16T09:01:05.745Z,23.20
2023-09-16T09:03:35.480Z,23.10
2023-09-16T09:06:05.077Z,23.20
2023-09-16T09:08:35.756Z,23.10
2023-09-16T09:11:04.780Z,23.20
2023-09-16T09:13:36.008Z,23.10
2023-09-16T09:16:06.006Z,23.30
2023-09-16T09:18:37.675Z,23.50
2023-09-16T09:21:07.569Z,23.50
2023-09-16T09:23:36.518Z,23.40
2023-09-16T09:26:05.891Z,23.40
2023-09-16T09:28:42.403Z,23.50
2023-09-16T09:31:12.162Z,23.40
2023-09-16T09:33:42.379Z,23.50
2023-09-16T09:36:13.351Z,23.60
2023-09-16T09:38:43.368Z,23.60
2023-09-16T09:41:12.767Z,23.50
2023-09-16T09:43:43.119Z,23.60
2023-09-16T09:46:13.821Z,23.50
2023-09-16T09:48:42.689Z,23.60
2023-09-16T09:51:11.624Z,23.50
2023-09-16T09:53:42.179Z,23.60
2023-09-16T09:56:13.333Z,23.60
2023-09-16T09:58:44.148Z,23.60
2023-09-16T10:01:13.510Z,23.60
2023-09-16T10:03:50.186Z,23.60
2023-09-16T10:06:20.688Z,23.80
2023-09-16T10:08:50.096Z,23.90
2023-09-16T10:11:21.591Z,24.00
2023-09-16T10:13:52.352Z,24.10
2023-09-16T10:16:21.974Z,24.20
2023-09-16T10:18:52.109Z,24.10
2023-09-16T10:21:24.016Z,24.20
2023-09-16T10:23:53.645Z,24.20
2023-09-16T10:26:23.239Z,24.20
2023-09-16T10:28:54.568Z,24.40
2023-09-16T10:31:24.526Z,24.40
2023-09-16T10:33:55.152Z,24.50
2023-09-16T10:36:24.759Z,24.40
2023-09-16T10:38:56.610Z,24.60
2023-09-16T10:41:27.743Z,24.50
2023-09-16T10:44:00.446Z,24.60
2023-09-16T10:46:31.041Z,24.60
2023-09-16T10:49:00.028Z,24.60
2023-09-16T10:51:30.873Z,24.50
2023-09-16T10:54:07.767Z,24.70
2023-09-16T10:56:42.236Z,24.80
2023-09-16T10:59:18.759Z,25.00
2023-09-16T11:01:53.087Z,25.10
2023-09-16T11:04:22.652Z,25.40
2023-09-16T11:06:52.825Z,25.40
2023-09-16T11:09:23.273Z,25.50
2023-09-16T11:11:53.376Z,25.60
2023-09-16T11:14:24.593Z,25.70
2023-09-16T11:16:55.537Z,25.70
2023-09-16T11:19:26.070Z,25.70
2023-09-16T11:21:55.358Z,25.80
2023-09-16T11:24:24.307Z,25.80
2023-09-16T11:26:53.791Z,25.90
2023-09-16T11:29:25.830Z,26.10
2023-09-16T11:31:55.814Z,26.20
2023-09-16T11:34:26.852Z,26.20
2023-09-16T11:36:58.029Z,26.20
2023-09-16T11:39:36.537Z,26.40
2023-09-16T11:42:06.045Z,26.50
2023-09-16T11:44:36.961Z,26.40
2023-09-16T11:47:07.432Z,26.40
2023-09-16T11:49:36.560Z,26.40
2023-09-16T11:52:07.231Z,26.50
2023-09-16T11:54:36.053Z,26.50
2023-09-16T11:57:06.011Z,26.40
2023-09-16T11:59:36.895Z,26.30
2023-09-16T12:02:06.327Z,26.30
2023-09-16T12:04:37.520Z,26.30
2023-09-16T12:07:06.986Z,26.30
2023-09-16T12:09:35.876Z,26.30
2023-09-16T12:12:06.532Z,26.20
2023-09-16T12:14:36.701Z,26.30
2023-09-16T12:17:06.499Z,26.30
2023-09-16T12:19:36.051Z,26.40
2023-09-16T12:22:05.247Z,26.60
2023-09-16T12:24:34.046Z,26.70
2023-09-16T12:27:03.406Z,26.60
2023-09-16T12:29:34.381Z,26.60
2023-09-16T12:32:16.124Z,26.70
2023-09-16T12:34:45.024Z,26.90
2023-09-16T12:37:15.059Z,27.00
2023-09-16T12:39:44.070Z,27.20
2023-09-16T12:42:16.011Z,27.20
2023-09-16T12:44:46.038Z,27.40
2023-09-16T12:47:18.762Z,27.50
2023-09-16T12:49:48.292Z,27.30
2023-09-16T12:52:18.197Z,27.30
2023-09-16T12:54:47.939Z,27.30
2023-09-16T12:57:22.568Z,27.40
2023-09-16T13:00:00.605Z,27.40
2023-09-16T13:02:31.135Z,27.40
2023-09-16T13:05:13.397Z,27.50
2023-09-16T13:07:42.632Z,27.70
2023-09-16T13:10:12.341Z,27.90
2023-09-16T13:12:42.408Z,27.80
2023-09-16T13:15:14.949Z,27.70
2023-09-16T13:17:46.319Z,27.80
2023-09-16T13:20:15.623Z,27.80
2023-09-16T13:22:44.953Z,27.80
2023-09-16T13:25:30.182Z,27.90
2023-09-16T13:28:08.432Z,28.00
2023-09-16T13:30:39.156Z,28.10
2023-09-16T13:33:10.540Z,28.20
2023-09-16T13:35:40.408Z,28.50
2023-09-16T13:38:11.296Z,28.60
2023-09-16T13:40:40.525Z,28.70
2023-09-16T13:43:09.965Z,28.70
2023-09-16T13:45:40.717Z,28.50
2023-09-16T13:48:13.248Z,28.60
2023-09-16T13:50:43.854Z,28.50
2023-09-16T13:53:13.853Z,28.60
2023-09-16T13:55:42.918Z,28.70
2023-09-16T13:58:12.609Z,28.70
2023-09-16T14:00:41.777Z,28.80
2023-09-16T14:03:12.115Z,28.70
2023-09-16T14:05:41.139Z,28.80
2023-09-16T14:08:09.972Z,28.90
2023-09-16T14:10:38.895Z,28.70
2023-09-16T14:13:08.943Z,28.60
2023-09-16T14:15:39.265Z,28.60
2023-09-16T14:18:09.106Z,28.50
2023-09-16T14:20:39.905Z,28.40
2023-09-16T14:23:09.271Z,28.30
2023-09-16T14:25:38.252Z,28.10
2023-09-16T14:28:07.116Z,28.00
2023-09-16T14:30:36.283Z,28.10
2023-09-16T14:33:05.866Z,28.00
2023-09-16T14:35:35.086Z,27.90
2023-09-16T14:38:05.849Z,27.80
2023-09-16T14:40:35.178Z,27.80
2023-09-16T14:43:04.907Z,27.80
2023-09-16T14:45:33.822Z,28.00
2023-09-16T14:48:03.776Z,27.90
2023-09-16T14:50:34.320Z,27.80
2023-09-16T14:53:05.319Z,27.50
2023-09-16T14:55:34.595Z,27.20
2023-09-16T14:58:05.225Z,27.30
2023-09-16T15:00:34.039Z,27.30
2023-09-16T15:03:03.555Z,27.30
2023-09-16T15:05:32.530Z,27.40
2023-09-16T15:08:01.266Z,27.40
2023-09-16T15:10:31.622Z,27.20
2023-09-16T15:13:00.463Z,27.10
2023-09-16T15:15:29.479Z,27.20
2023-09-16T15:17:58.316Z,27.00
2023-09-16T15:20:29.136Z,26.90
2023-09-16T15:22:58.516Z,26.70
2023-09-16T15:25:27.523Z,26.80
2023-09-16T15:27:57.821Z,26.70
2023-09-16T15:30:28.364Z,26.80
2023-09-16T15:32:57.340Z,26.80
2023-09-16T15:35:26.299Z,26.90
2023-09-16T15:37:55.222Z,26.90
2023-09-16T15:40:24.105Z,26.90
2023-09-16T15:42:54.278Z,27.00
2023-09-16T15:45:24.577Z,27.00
2023-09-16T15:47:53.609Z,26.90
2023-09-16T15:50:22.695Z,26.80
2023-09-16T15:52:51.520Z,26.70
2023-09-16T15:55:20.740Z,26.90
2023-09-16T15:57:49.729Z,26.90
2023-09-16T16:00:18.727Z,26.90
2023-09-16T16:02:49.489Z,26.80
2023-09-16T16:05:19.282Z,26.80
2023-09-16T16:07:48.487Z,26.80
2023-09-16T16:10:18.285Z,26.70
2023-09-16T16:12:47.143Z,26.60
2023-09-16T16:15:15.956Z,26.60
2023-09-16T16:17:44.854Z,26.60
2023-09-16T16:20:15.749Z,26.50
2023-09-16T16:22:44.799Z,26.50
2023-09-16T16:25:13.855Z,26.40
2023-09-16T16:27:42.542Z,26.50
2023-09-16T16:30:12.438Z,26.40
2023-09-16T16:32:41.371Z,26.30
2023-09-16T16:35:10.615Z,26.30
2023-09-16T16:37:41.132Z,26.30
2023-09-16T16:40:11.525Z,26.30
2023-09-16T16:42:40.674Z,26.30
2023-09-16T16:45:10.047Z,26.30
2023-09-16T16:47:41.308Z,26.20
2023-09-16T16:50:10.513Z,26.10
2023-09-16T16:52:40.767Z,26.10
2023-09-16T16:55:10.195Z,26.10
2023-09-16T16:57:39.608Z,26.10
2023-09-16T17:00:11.033Z,25.90
2023-09-16T17:02:39.969Z,25.80
2023-09-16T17:05:10.008Z,25.80
2023-09-16T17:07:40.476Z,25.80
2023-09-16T17:10:10.204Z,25.70
2023-09-16T17:12:40.624Z,25.60
2023-09-16T17:15:10.551Z,25.50
2023-09-16T17:17:39.424Z,25.50
2023-09-16T17:20:10.051Z,25.50
2023-09-16T17:22:40.303Z,25.50
2023-09-16T17:25:09.733Z,25.50
2023-09-16T17:27:40.983Z,25.50
2023-09-16T17:30:11.166Z,25.50
2023-09-16T17:32:40.334Z,25.40
2023-09-16T17:35:10.532Z,25.30
2023-09-16T17:37:41.334Z,25.30
2023-09-16T17:40:11.499Z,25.20
2023-09-16T17:42:40.393Z,25.10
2023-09-16T17:45:10.306Z,25.00
2023-09-16T17:47:39.236Z,24.90
2023-09-16T17:50:10.253Z,24.60
2023-09-16T17:52:40.719Z,24.40
2023-09-16T17:55:11.031Z,24.30
2023-09-16T17:57:40.008Z,24.10
2023-09-16T18:00:10.793Z,24.00
2023-09-16T18:02:47.090Z,23.80
2023-09-16T18:05:16.009Z,23.60
2023-09-16T18:07:46.299Z,23.50
2023-09-16T18:10:15.091Z,23.30
2023-09-16T18:12:44.120Z,23.20
2023-09-16T18:15:13.332Z,23.00
2023-09-16T18:17:42.256Z,23.10
2023-09-16T18:20:12.003Z,23.10
2023-09-16T18:22:40.997Z,23.20
2023-09-16T18:25:11.837Z,23.10
2023-09-16T18:27:42.276Z,23.10
2023-09-16T18:30:12.153Z,23.10
2023-09-16T18:32:41.195Z,23.10
2023-09-16T18:35:10.353Z,23.10
2023-09-16T18:37:42.974Z,23.10
2023-09-16T18:40:15.680Z,23.10
2023-09-16T18:42:45.659Z,23.00
2023-09-16T18:45:14.482Z,23.00
2023-09-16T18:47:43.506Z,23.00
2023-09-16T18:50:12.900Z,23.10
2023-09-16T18:52:41.986Z,23.00
2023-09-16T18:55:11.507Z,23.00
2023-09-16T18:57:41.634Z,23.00
2023-09-16T19:00:13.162Z,23.10
2023-09-16T19:02:41.977Z,23.10
2023-09-16T19:05:11.261Z,23.20
2023-09-16T19:07:41.969Z,23.20
2023-09-16T19:10:11.385Z,23.20
2023-09-16T19:12:41.757Z,23.30
2023-09-16T19:15:11.969Z,23.30
2023-09-16T19:17:43.292Z,23.30
2023-09-16T19:20:13.018Z,23.40
2023-09-16T19:22:42.371Z,23.30
2023-09-16T19:25:12.229Z,23.40
2023-09-16T19:27:42.785Z,23.40
2023-09-16T19:30:12.636Z,23.50
2023-09-16T19:32:41.576Z,23.40
2023-09-16T19:35:11.122Z,23.50
2023-09-16T19:37:40.031Z,23.50
2023-09-16T19:40:10.726Z,23.40
2023-09-16T19:42:40.043Z,23.40
2023-09-16T19:45:11.346Z,23.40
2023-09-16T19:47:40.458Z,23.40
2023-09-16T19:50:10.008Z,23.50
2023-09-16T19:52:39.365Z,23.50
2023-09-16T19:55:08.786Z,23.40
2023-09-16T19:57:38.256Z,23.40
2023-09-16T20:00:10.803Z,23.50
2023-09-16T20:02:43.831Z,23.50
2023-09-16T20:05:13.296Z,23.50
2023-09-16T20:07:42.355Z,23.50
2023-09-16T20:10:11.930Z,23.50
2023-09-16T20:12:41.099Z,23.40
2023-09-16T20:15:13.993Z,23.30
2023-09-16T20:17:44.986Z,23.40
2023-09-16T20:20:14.713Z,23.40
2023-09-16T20:22:43.644Z,23.40
2023-09-16T20:25:14.943Z,23.30
2023-09-16T20:27:44.814Z,23.20
2023-09-16T20:30:16.163Z,23.20
2023-09-16T20:32:45.369Z,23.10
2023-09-16T20:35:14.548Z,23.10
2023-09-16T20:37:43.647Z,23.20
2023-09-16T20:40:13.623Z,23.20
2023-09-16T20:42:42.503Z,23.10
2023-09-16T20:45:12.100Z,23.10
2023-09-16T20:47:42.374Z,23.10
2023-09-16T20:50:11.934Z,23.10
2023-09-16T20:52:41.969Z,23.10
2023-09-16T20:55:11.092Z,23.10
2023-09-16T20:57:40.337Z,23.10
2023-09-16T21:00:11.020Z,23.00
2023-09-16T21:02:41.280Z,23.00
2023-09-16T21:05:10.756Z,22.90
2023-09-16T21:07:40.183Z,22.80
2023-09-16T21:10:10.315Z,22.70
2023-09-16T21:12:43.898Z,22.60
2023-09-16T21:15:13.124Z,22.60
2023-09-16T21:17:43.545Z,22.50
2023-09-16T21:20:13.027Z,22.50
2023-09-16T21:22:42.369Z,22.60
2023-09-16T21:25:12.763Z,22.70
2023-09-16T21:27:41.768Z,22.60
2023-09-16T21:30:11.596Z,22.60
2023-09-16T21:32:42.346Z,22.50
2023-09-16T21:35:11.453Z,22.40
2023-09-16T21:37:40.458Z,22.40
2023-09-16T21:40:10.180Z,22.40
2023-09-16T21:42:39.164Z,22.40
2023-09-16T21:45:08.851Z,22.30
2023-09-16T21:47:38.048Z,22.30
2023-09-16T21:50:09.940Z,22.30
2023-09-16T21:52:38.806Z,22.30
2023-09-16T21:55:08.297Z,22.40
2023-09-16T21:57:37.306Z,22.30
2023-09-16T22:00:17.895Z,22.20
2023-09-16T22:02:46.756Z,22.10
2023-09-16T22:05:17.382Z,22.10
2023-09-16T22:07:48.304Z,22.10
2023-09-16T22:10:18.214Z,22.20
2023-09-16T22:12:47.220Z,22.20
2023-09-16T22:15:15.052Z,22.30
2023-09-16T22:17:45.517Z,22.30
2023-09-16T22:20:15.443Z,22.30
2023-09-16T22:22:46.047Z,22.30
2023-09-16T22:25:15.278Z,22.40
2023-09-16T22:27:44.421Z,22.30
2023-09-16T22:30:13.854Z,22.30
2023-09-16T22:32:42.618Z,22.20
2023-09-16T22:35:11.592Z,22.10
2023-09-16T22:37:42.330Z,22.10
2023-09-16T22:40:13.153Z,22.10
2023-09-16T22:42:42.030Z,22.00
2023-09-16T22:45:11.797Z,21.90
2023-09-16T22:47:41.157Z,21.90
2023-09-16T22:50:10.760Z,21.90
2023-09-16T22:52:39.717Z,21.80
2023-09-16T22:55:09.322Z,21.70
2023-09-16T22:57:39.535Z,21.70
2023-09-16T23:00:09.875Z,21.70
2023-09-16T23:02:38.715Z,21.80
2023-09-16T23:05:08.156Z,21.90
2023-09-16T23:07:37.079Z,21.80
2023-09-16T23:10:06.574Z,21.90
2023-09-16T23:12:35.469Z,21.80
2023-09-16T23:15:06.812Z,21.80
2023-09-16T23:17:35.922Z,21.60
2023-09-16T23:20:05.845Z,21.60
2023-09-16T23:22:34.798Z,21.50
2023-09-16T23:25:05.742Z,21.60
2023-09-16T23:27:34.790Z,21.60
2023-09-16T23:30:05.452Z,21.70
2023-09-16T23:32:34.388Z,21.70
2023-09-16T23:35:04.895Z,21.50
2023-09-16T23:37:34.573Z,21.50
2023-09-16T23:40:07.364Z,21.50
2023-09-16T23:42:36.941Z,21.50
2023-09-16T23:45:08.687Z,21.40
2023-09-16T23:47:38.205Z,21.50
2023-09-16T23:50:08.923Z,21.50
2023-09-16T23:52:39.528Z,21.40
2023-09-16T23:55:08.995Z,21.40
2023-09-16T23:57:38.051Z,21.50
